sensor_id;sensor_type;location;lat;lon;timestamp;P1;durP1;ratioP1;P2;durP2;ratioP2
14847;SDS011;7516;43.570;1.448;2022-12-29T00:00:22;11.83;;;8.67;;
14847;SDS011;7516;43.570;1.448;2022-12-29T00:02:49;14.00;;;8.33;;
14847;SDS011;7516;43.570;1.448;2022-12-29T00:05:17;12.13;;;8.30;;
14847;SDS011;7516;43.570;1.448;2022-12-29T00:07:46;13.90;;;8.23;;
14847;SDS011;7516;43.570;1.448;2022-12-29T00:10:13;11.97;;;8.13;;
14847;SDS011;7516;43.570;1.448;2022-12-29T00:12:41;12.93;;;8.50;;
14847;SDS011;7516;43.570;1.448;2022-12-29T00:15:26;13.87;;;8.00;;
14847;SDS011;7516;43.570;1.448;2022-12-29T00:18:05;10.93;;;7.67;;
14847;SDS011;7516;43.570;1.448;2022-12-29T00:20:34;10.87;;;7.47;;
14847;SDS011;7516;43.570;1.448;2022-12-29T00:23:21;10.47;;;7.53;;
14847;SDS011;7516;43.570;1.448;2022-12-29T00:26:09;11.13;;;7.57;;
14847;SDS011;7516;43.570;1.448;2022-12-29T00:28:58;11.90;;;6.87;;
14847;SDS011;7516;43.570;1.448;2022-12-29T00:31:43;10.23;;;7.23;;
14847;SDS011;7516;43.570;1.448;2022-12-29T00:34:28;10.17;;;7.57;;
14847;SDS011;7516;43.570;1.448;2022-12-29T00:37:13;11.27;;;7.23;;
14847;SDS011;7516;43.570;1.448;2022-12-29T00:39:42;10.93;;;7.13;;
14847;SDS011;7516;43.570;1.448;2022-12-29T00:42:27;9.97;;;6.90;;
14847;SDS011;7516;43.570;1.448;2022-12-29T00:45:23;11.10;;;6.97;;
14847;SDS011;7516;43.570;1.448;2022-12-29T00:47:50;11.47;;;7.20;;
14847;SDS011;7516;43.570;1.448;2022-12-29T00:50:18;10.47;;;7.30;;
14847;SDS011;7516;43.570;1.448;2022-12-29T00:52:44;9.00;;;6.30;;
14847;SDS011;7516;43.570;1.448;2022-12-29T00:55:13;9.07;;;6.47;;
14847;SDS011;7516;43.570;1.448;2022-12-29T00:57:41;11.50;;;7.27;;
14847;SDS011;7516;43.570;1.448;2022-12-29T01:00:09;11.10;;;7.07;;
14847;SDS011;7516;43.570;1.448;2022-12-29T01:02:38;11.20;;;6.60;;
14847;SDS011;7516;43.570;1.448;2022-12-29T01:05:05;10.83;;;6.67;;
14847;SDS011;7516;43.570;1.448;2022-12-29T01:07:33;10.33;;;6.70;;
14847;SDS011;7516;43.570;1.448;2022-12-29T01:10:01;9.27;;;6.90;;
14847;SDS011;7516;43.570;1.448;2022-12-29T01:12:37;9.47;;;6.90;;
14847;SDS011;7516;43.570;1.448;2022-12-29T01:15:10;12.73;;;6.77;;
14847;SDS011;7516;43.570;1.448;2022-12-29T01:17:39;8.17;;;6.43;;
14847;SDS011;7516;43.570;1.448;2022-12-29T01:20:08;9.27;;;6.80;;
14847;SDS011;7516;43.570;1.448;2022-12-29T01:22:36;10.10;;;6.83;;
14847;SDS011;7516;43.570;1.448;2022-12-29T01:25:04;9.83;;;7.23;;
14847;SDS011;7516;43.570;1.448;2022-12-29T01:27:32;10.00;;;6.67;;
14847;SDS011;7516;43.570;1.448;2022-12-29T01:30:01;10.53;;;7.80;;
14847;SDS011;7516;43.570;1.448;2022-12-29T01:32:29;10.70;;;7.20;;
14847;SDS011;7516;43.570;1.448;2022-12-29T01:34:57;11.20;;;7.33;;
14847;SDS011;7516;43.570;1.448;2022-12-29T01:37:24;11.67;;;7.40;;
14847;SDS011;7516;43.570;1.448;2022-12-29T01:39:52;13.33;;;7.43;;
14847;SDS011;7516;43.570;1.448;2022-12-29T01:42:22;10.37;;;7.93;;
14847;SDS011;7516;43.570;1.448;2022-12-29T01:44:52;12.10;;;7.70;;
14847;SDS011;7516;43.570;1.448;2022-12-29T01:47:25;10.40;;;7.33;;
14847;SDS011;7516;43.570;1.448;2022-12-29T01:49:57;10.07;;;6.77;;
14847;SDS011;7516;43.570;1.448;2022-12-29T01:52:28;11.10;;;8.00;;
14847;SDS011;7516;43.570;1.448;2022-12-29T01:54:59;10.17;;;7.20;;
14847;SDS011;7516;43.570;1.448;2022-12-29T01:57:29;10.00;;;7.30;;
14847;SDS011;7516;43.570;1.448;2022-12-29T02:00:00;11.23;;;7.27;;
14847;SDS011;7516;43.570;1.448;2022-12-29T02:02:32;10.93;;;7.50;;
14847;SDS011;7516;43.570;1.448;2022-12-29T02:05:01;10.07;;;6.97;;
14847;SDS011;7516;43.570;1.448;2022-12-29T02:07:33;9.07;;;6.70;;
14847;SDS011;7516;43.570;1.448;2022-12-29T02:10:01;10.03;;;6.93;;
14847;SDS011;7516;43.570;1.448;2022-12-29T02:12:29;12.27;;;6.70;;
14847;SDS011;7516;43.570;1.448;2022-12-29T02:14:57;8.77;;;6.00;;
14847;SDS011;7516;43.570;1.448;2022-12-29T02:17:31;10.30;;;6.50;;
14847;SDS011;7516;43.570;1.448;2022-12-29T02:20:30;10.63;;;6.70;;
14847;SDS011;7516;43.570;1.448;2022-12-29T02:23:37;8.77;;;6.57;;
14847;SDS011;7516;43.570;1.448;2022-12-29T02:26:29;12.00;;;6.97;;
14847;SDS011;7516;43.570;1.448;2022-12-29T02:32:19;10.40;;;6.10;;
14847;SDS011;7516;43.570;1.448;2022-12-29T02:34:57;11.27;;;6.30;;
14847;SDS011;7516;43.570;1.448;2022-12-29T02:37:37;11.90;;;6.80;;
14847;SDS011;7516;43.570;1.448;2022-12-29T02:40:12;13.27;;;5.93;;
14847;SDS011;7516;43.570;1.448;2022-12-29T02:42:50;10.67;;;5.97;;
14847;SDS011;7516;43.570;1.448;2022-12-29T02:45:26;9.50;;;6.20;;
14847;SDS011;7516;43.570;1.448;2022-12-29T02:48:07;11.07;;;7.23;;
14847;SDS011;7516;43.570;1.448;2022-12-29T02:50:42;9.13;;;6.43;;
14847;SDS011;7516;43.570;1.448;2022-12-29T02:53:15;9.63;;;6.23;;
14847;SDS011;7516;43.570;1.448;2022-12-29T02:56:05;8.33;;;6.33;;
14847;SDS011;7516;43.570;1.448;2022-12-29T02:58:32;10.80;;;6.67;;
14847;SDS011;7516;43.570;1.448;2022-12-29T03:01:03;9.17;;;6.60;;
14847;SDS011;7516;43.570;1.448;2022-12-29T03:03:46;9.73;;;6.20;;
14847;SDS011;7516;43.570;1.448;2022-12-29T03:06:30;8.03;;;5.97;;
14847;SDS011;7516;43.570;1.448;2022-12-29T03:09:11;11.60;;;5.63;;
14847;SDS011;7516;43.570;1.448;2022-12-29T03:11:45;7.73;;;5.53;;
14847;SDS011;7516;43.570;1.448;2022-12-29T03:14:38;12.03;;;6.00;;
14847;SDS011;7516;43.570;1.448;2022-12-29T03:17:44;11.50;;;5.47;;
14847;SDS011;7516;43.570;1.448;2022-12-29T03:20:20;9.67;;;6.13;;
14847;SDS011;7516;43.570;1.448;2022-12-29T03:22:53;7.87;;;6.10;;
14847;SDS011;7516;43.570;1.448;2022-12-29T03:25:27;11.73;;;6.47;;
14847;SDS011;7516;43.570;1.448;2022-12-29T03:27:58;10.63;;;6.37;;
14847;SDS011;7516;43.570;1.448;2022-12-29T03:30:30;8.00;;;6.17;;
14847;SDS011;7516;43.570;1.448;2022-12-29T03:33:01;11.80;;;6.50;;
14847;SDS011;7516;43.570;1.448;2022-12-29T03:35:34;12.07;;;6.63;;
14847;SDS011;7516;43.570;1.448;2022-12-29T03:38:05;10.70;;;6.07;;
14847;SDS011;7516;43.570;1.448;2022-12-29T03:40:38;9.90;;;6.17;;
14847;SDS011;7516;43.570;1.448;2022-12-29T03:43:10;14.27;;;6.20;;
14847;SDS011;7516;43.570;1.448;2022-12-29T03:45:39;11.03;;;6.43;;
14847;SDS011;7516;43.570;1.448;2022-12-29T03:48:07;12.97;;;6.17;;
14847;SDS011;7516;43.570;1.448;2022-12-29T03:50:35;10.77;;;5.83;;
14847;SDS011;7516;43.570;1.448;2022-12-29T03:53:03;9.83;;;6.33;;
14847;SDS011;7516;43.570;1.448;2022-12-29T03:55:31;10.30;;;6.80;;
14847;SDS011;7516;43.570;1.448;2022-12-29T03:57:58;11.60;;;6.17;;
14847;SDS011;7516;43.570;1.448;2022-12-29T04:00:26;13.93;;;6.30;;
14847;SDS011;7516;43.570;1.448;2022-12-29T04:02:54;13.07;;;6.50;;
14847;SDS011;7516;43.570;1.448;2022-12-29T04:05:22;11.10;;;6.47;;
14847;SDS011;7516;43.570;1.448;2022-12-29T04:07:51;10.83;;;6.00;;
14847;SDS011;7516;43.570;1.448;2022-12-29T04:10:18;11.67;;;6.30;;
14847;SDS011;7516;43.570;1.448;2022-12-29T04:12:46;11.67;;;6.63;;
14847;SDS011;7516;43.570;1.448;2022-12-29T04:15:13;10.20;;;6.07;;
14847;SDS011;7516;43.570;1.448;2022-12-29T04:17:41;8.67;;;6.23;;
14847;SDS011;7516;43.570;1.448;2022-12-29T04:20:09;10.43;;;6.27;;
14847;SDS011;7516;43.570;1.448;2022-12-29T04:22:59;8.77;;;5.73;;
14847;SDS011;7516;43.570;1.448;2022-12-29T04:25:27;13.27;;;6.17;;
14847;SDS011;7516;43.570;1.448;2022-12-29T04:27:56;11.83;;;5.90;;
14847;SDS011;7516;43.570;1.448;2022-12-29T04:30:23;9.73;;;5.93;;
14847;SDS011;7516;43.570;1.448;2022-12-29T04:32:51;7.93;;;6.00;;
14847;SDS011;7516;43.570;1.448;2022-12-29T04:35:18;11.40;;;6.17;;
14847;SDS011;7516;43.570;1.448;2022-12-29T04:37:46;8.20;;;5.57;;
14847;SDS011;7516;43.570;1.448;2022-12-29T04:40:15;9.20;;;6.27;;
14847;SDS011;7516;43.570;1.448;2022-12-29T04:42:42;8.70;;;5.50;;
14847;SDS011;7516;43.570;1.448;2022-12-29T04:45:10;11.57;;;6.23;;
14847;SDS011;7516;43.570;1.448;2022-12-29T04:47:38;9.37;;;5.70;;
14847;SDS011;7516;43.570;1.448;2022-12-29T04:50:06;13.57;;;6.73;;
14847;SDS011;7516;43.570;1.448;2022-12-29T04:52:34;10.33;;;5.83;;
14847;SDS011;7516;43.570;1.448;2022-12-29T04:55:02;10.57;;;6.10;;
14847;SDS011;7516;43.570;1.448;2022-12-29T04:57:31;10.27;;;5.67;;
14847;SDS011;7516;43.570;1.448;2022-12-29T04:59:59;11.13;;;5.90;;
14847;SDS011;7516;43.570;1.448;2022-12-29T05:02:27;12.00;;;5.90;;
14847;SDS011;7516;43.570;1.448;2022-12-29T05:04:55;8.93;;;5.47;;
14847;SDS011;7516;43.570;1.448;2022-12-29T05:07:23;7.70;;;5.30;;
14847;SDS011;7516;43.570;1.448;2022-12-29T05:09:51;12.33;;;5.23;;
14847;SDS011;7516;43.570;1.448;2022-12-29T05:12:18;9.10;;;5.37;;
14847;SDS011;7516;43.570;1.448;2022-12-29T05:14:47;10.57;;;5.53;;
14847;SDS011;7516;43.570;1.448;2022-12-29T05:17:15;8.47;;;5.50;;
14847;SDS011;7516;43.570;1.448;2022-12-29T05:19:42;8.60;;;5.67;;
14847;SDS011;7516;43.570;1.448;2022-12-29T05:22:10;8.40;;;5.50;;
14847;SDS011;7516;43.570;1.448;2022-12-29T05:24:37;9.90;;;5.40;;
14847;SDS011;7516;43.570;1.448;2022-12-29T05:27:05;9.80;;;5.60;;
14847;SDS011;7516;43.570;1.448;2022-12-29T05:29:32;8.73;;;5.30;;
14847;SDS011;7516;43.570;1.448;2022-12-29T05:32:01;7.03;;;5.63;;
14847;SDS011;7516;43.570;1.448;2022-12-29T05:34:29;11.53;;;5.40;;
14847;SDS011;7516;43.570;1.448;2022-12-29T05:36:57;7.33;;;5.10;;
14847;SDS011;7516;43.570;1.448;2022-12-29T05:39:24;8.07;;;5.77;;
14847;SDS011;7516;43.570;1.448;2022-12-29T05:41:52;8.83;;;5.40;;
14847;SDS011;7516;43.570;1.448;2022-12-29T05:44:19;9.23;;;5.80;;
14847;SDS011;7516;43.570;1.448;2022-12-29T05:46:47;7.80;;;5.37;;
14847;SDS011;7516;43.570;1.448;2022-12-29T05:49:16;10.33;;;6.10;;
14847;SDS011;7516;43.570;1.448;2022-12-29T05:51:44;10.40;;;5.63;;
14847;SDS011;7516;43.570;1.448;2022-12-29T05:54:11;11.07;;;6.13;;
14847;SDS011;7516;43.570;1.448;2022-12-29T05:56:39;12.30;;;6.10;;
14847;SDS011;7516;43.570;1.448;2022-12-29T05:59:06;10.53;;;6.10;;
14847;SDS011;7516;43.570;1.448;2022-12-29T06:01:34;16.23;;;7.00;;
14847;SDS011;7516;43.570;1.448;2022-12-29T06:04:01;10.60;;;6.27;;
14847;SDS011;7516;43.570;1.448;2022-12-29T06:06:30;10.33;;;6.10;;
14847;SDS011;7516;43.570;1.448;2022-12-29T06:08:58;8.00;;;5.97;;
14847;SDS011;7516;43.570;1.448;2022-12-29T06:11:25;10.20;;;6.00;;
14847;SDS011;7516;43.570;1.448;2022-12-29T06:13:53;8.33;;;6.00;;
14847;SDS011;7516;43.570;1.448;2022-12-29T06:16:20;12.27;;;6.00;;
14847;SDS011;7516;43.570;1.448;2022-12-29T06:18:48;8.97;;;5.77;;
14847;SDS011;7516;43.570;1.448;2022-12-29T06:21:15;11.27;;;6.33;;
14847;SDS011;7516;43.570;1.448;2022-12-29T06:23:44;9.87;;;5.60;;
14847;SDS011;7516;43.570;1.448;2022-12-29T06:26:12;12.60;;;6.60;;
14847;SDS011;7516;43.570;1.448;2022-12-29T06:28:39;10.07;;;5.67;;
14847;SDS011;7516;43.570;1.448;2022-12-29T06:31:08;12.90;;;6.37;;
14847;SDS011;7516;43.570;1.448;2022-12-29T06:33:36;11.27;;;6.30;;
14847;SDS011;7516;43.570;1.448;2022-12-29T06:36:04;9.97;;;6.80;;
14847;SDS011;7516;43.570;1.448;2022-12-29T06:38:32;10.50;;;5.70;;
14847;SDS011;7516;43.570;1.448;2022-12-29T06:41:01;11.83;;;6.57;;
14847;SDS011;7516;43.570;1.448;2022-12-29T06:43:29;11.10;;;6.50;;
14847;SDS011;7516;43.570;1.448;2022-12-29T06:45:57;8.47;;;5.90;;
14847;SDS011;7516;43.570;1.448;2022-12-29T06:48:24;10.37;;;6.67;;
14847;SDS011;7516;43.570;1.448;2022-12-29T06:50:52;12.30;;;6.27;;
14847;SDS011;7516;43.570;1.448;2022-12-29T06:53:19;12.63;;;6.63;;
14847;SDS011;7516;43.570;1.448;2022-12-29T06:55:47;12.57;;;6.67;;
14847;SDS011;7516;43.570;1.448;2022-12-29T06:58:16;11.17;;;6.83;;
14847;SDS011;7516;43.570;1.448;2022-12-29T07:00:44;11.10;;;6.43;;
14847;SDS011;7516;43.570;1.448;2022-12-29T07:03:11;12.10;;;6.70;;
14847;SDS011;7516;43.570;1.448;2022-12-29T07:05:39;11.73;;;6.73;;
14847;SDS011;7516;43.570;1.448;2022-12-29T07:08:07;10.27;;;6.50;;
14847;SDS011;7516;43.570;1.448;2022-12-29T07:10:34;11.50;;;6.77;;
14847;SDS011;7516;43.570;1.448;2022-12-29T07:13:02;13.27;;;6.83;;
14847;SDS011;7516;43.570;1.448;2022-12-29T07:15:31;10.30;;;6.27;;
14847;SDS011;7516;43.570;1.448;2022-12-29T07:17:58;11.50;;;6.43;;
14847;SDS011;7516;43.570;1.448;2022-12-29T07:20:26;10.80;;;6.43;;
14847;SDS011;7516;43.570;1.448;2022-12-29T07:22:53;12.17;;;6.30;;
14847;SDS011;7516;43.570;1.448;2022-12-29T07:25:21;15.33;;;7.83;;
14847;SDS011;7516;43.570;1.448;2022-12-29T07:27:48;11.80;;;6.90;;
14847;SDS011;7516;43.570;1.448;2022-12-29T07:30:16;13.53;;;6.80;;
14847;SDS011;7516;43.570;1.448;2022-12-29T07:32:45;14.80;;;7.17;;
14847;SDS011;7516;43.570;1.448;2022-12-29T07:35:13;10.00;;;6.73;;
14847;SDS011;7516;43.570;1.448;2022-12-29T07:37:40;11.73;;;6.73;;
14847;SDS011;7516;43.570;1.448;2022-12-29T07:40:08;12.37;;;6.77;;
14847;SDS011;7516;43.570;1.448;2022-12-29T07:42:37;13.43;;;7.20;;
14847;SDS011;7516;43.570;1.448;2022-12-29T07:45:05;13.23;;;6.93;;
14847;SDS011;7516;43.570;1.448;2022-12-29T07:47:34;10.60;;;6.87;;
14847;SDS011;7516;43.570;1.448;2022-12-29T07:50:03;13.67;;;7.00;;
14847;SDS011;7516;43.570;1.448;2022-12-29T07:52:31;15.47;;;6.93;;
14847;SDS011;7516;43.570;1.448;2022-12-29T07:54:59;12.97;;;7.43;;
14847;SDS011;7516;43.570;1.448;2022-12-29T07:57:26;12.63;;;7.07;;
14847;SDS011;7516;43.570;1.448;2022-12-29T07:59:54;15.43;;;7.20;;
14847;SDS011;7516;43.570;1.448;2022-12-29T08:02:21;13.50;;;7.00;;
14847;SDS011;7516;43.570;1.448;2022-12-29T08:04:51;13.17;;;6.63;;
14847;SDS011;7516;43.570;1.448;2022-12-29T08:07:20;13.67;;;6.80;;
14847;SDS011;7516;43.570;1.448;2022-12-29T08:09:47;15.40;;;7.27;;
14847;SDS011;7516;43.570;1.448;2022-12-29T08:12:15;16.03;;;6.80;;
14847;SDS011;7516;43.570;1.448;2022-12-29T08:14:42;12.10;;;7.00;;
14847;SDS011;7516;43.570;1.448;2022-12-29T08:17:10;14.23;;;6.33;;
14847;SDS011;7516;43.570;1.448;2022-12-29T08:19:38;12.60;;;7.10;;
14847;SDS011;7516;43.570;1.448;2022-12-29T08:22:07;16.47;;;8.40;;
14847;SDS011;7516;43.570;1.448;2022-12-29T08:24:36;16.40;;;7.33;;
14847;SDS011;7516;43.570;1.448;2022-12-29T08:27:04;14.80;;;7.00;;
14847;SDS011;7516;43.570;1.448;2022-12-29T08:29:31;12.47;;;6.87;;
14847;SDS011;7516;43.570;1.448;2022-12-29T08:31:59;14.33;;;7.23;;
14847;SDS011;7516;43.570;1.448;2022-12-29T08:34:26;12.40;;;6.63;;
14847;SDS011;7516;43.570;1.448;2022-12-29T08:36:54;13.10;;;6.70;;
14847;SDS011;7516;43.570;1.448;2022-12-29T08:39:22;18.40;;;7.40;;
14847;SDS011;7516;43.570;1.448;2022-12-29T08:41:51;15.70;;;7.30;;
14847;SDS011;7516;43.570;1.448;2022-12-29T08:44:18;12.53;;;6.80;;
14847;SDS011;7516;43.570;1.448;2022-12-29T08:46:46;15.33;;;7.03;;
14847;SDS011;7516;43.570;1.448;2022-12-29T08:49:13;13.17;;;7.03;;
14847;SDS011;7516;43.570;1.448;2022-12-29T08:51:41;13.43;;;7.40;;
14847;SDS011;7516;43.570;1.448;2022-12-29T08:54:08;15.10;;;7.77;;
14847;SDS011;7516;43.570;1.448;2022-12-29T08:56:36;14.53;;;6.87;;
14847;SDS011;7516;43.570;1.448;2022-12-29T08:59:05;12.77;;;7.10;;
14847;SDS011;7516;43.570;1.448;2022-12-29T09:01:32;14.03;;;7.40;;
14847;SDS011;7516;43.570;1.448;2022-12-29T09:04:05;13.50;;;7.20;;
14847;SDS011;7516;43.570;1.448;2022-12-29T09:06:33;11.43;;;7.10;;
14847;SDS011;7516;43.570;1.448;2022-12-29T09:09:00;12.17;;;6.70;;
14847;SDS011;7516;43.570;1.448;2022-12-29T09:11:28;14.90;;;6.93;;
14847;SDS011;7516;43.570;1.448;2022-12-29T09:13:56;19.23;;;6.87;;
14847;SDS011;7516;43.570;1.448;2022-12-29T09:16:25;13.17;;;7.10;;
14847;SDS011;7516;43.570;1.448;2022-12-29T09:18:53;14.13;;;7.07;;
14847;SDS011;7516;43.570;1.448;2022-12-29T09:21:20;11.50;;;6.47;;
14847;SDS011;7516;43.570;1.448;2022-12-29T09:23:48;18.07;;;7.57;;
14847;SDS011;7516;43.570;1.448;2022-12-29T09:26:15;10.73;;;6.57;;
14847;SDS011;7516;43.570;1.448;2022-12-29T09:28:43;13.50;;;6.73;;
14847;SDS011;7516;43.570;1.448;2022-12-29T09:31:12;11.43;;;6.33;;
14847;SDS011;7516;43.570;1.448;2022-12-29T09:33:41;15.00;;;7.00;;
14847;SDS011;7516;43.570;1.448;2022-12-29T09:36:08;9.67;;;5.87;;
14847;SDS011;7516;43.570;1.448;2022-12-29T09:38:36;10.93;;;6.20;;
14847;SDS011;7516;43.570;1.448;2022-12-29T09:41:05;11.93;;;6.13;;
14847;SDS011;7516;43.570;1.448;2022-12-29T09:43:52;12.27;;;5.90;;
14847;SDS011;7516;43.570;1.448;2022-12-29T09:46:31;8.57;;;5.47;;
14847;SDS011;7516;43.570;1.448;2022-12-29T09:49:08;10.37;;;5.60;;
14847;SDS011;7516;43.570;1.448;2022-12-29T09:51:46;10.37;;;6.33;;
14847;SDS011;7516;43.570;1.448;2022-12-29T09:54:24;10.00;;;5.37;;
14847;SDS011;7516;43.570;1.448;2022-12-29T09:56:59;9.73;;;5.27;;
14847;SDS011;7516;43.570;1.448;2022-12-29T09:59:38;10.93;;;5.73;;
14847;SDS011;7516;43.570;1.448;2022-12-29T10:02:12;9.80;;;5.00;;
14847;SDS011;7516;43.570;1.448;2022-12-29T10:04:54;9.43;;;5.50;;
14847;SDS011;7516;43.570;1.448;2022-12-29T10:07:25;9.67;;;5.67;;
14847;SDS011;7516;43.570;1.448;2022-12-29T10:10:09;12.17;;;5.57;;
14847;SDS011;7516;43.570;1.448;2022-12-29T10:12:50;11.87;;;5.57;;
14847;SDS011;7516;43.570;1.448;2022-12-29T10:15:38;11.80;;;5.23;;
14847;SDS011;7516;43.570;1.448;2022-12-29T10:18:19;9.50;;;4.50;;
14847;SDS011;7516;43.570;1.448;2022-12-29T10:20:57;12.60;;;5.43;;
14847;SDS011;7516;43.570;1.448;2022-12-29T10:23:32;10.73;;;5.63;;
14847;SDS011;7516;43.570;1.448;2022-12-29T10:26:04;8.87;;;5.27;;
14847;SDS011;7516;43.570;1.448;2022-12-29T10:28:39;11.80;;;5.03;;
14847;SDS011;7516;43.570;1.448;2022-12-29T10:31:11;11.30;;;5.43;;
14847;SDS011;7516;43.570;1.448;2022-12-29T10:33:45;9.70;;;5.90;;
14847;SDS011;7516;43.570;1.448;2022-12-29T10:36:18;11.13;;;5.00;;
14847;SDS011;7516;43.570;1.448;2022-12-29T10:38:58;9.83;;;4.80;;
14847;SDS011;7516;43.570;1.448;2022-12-29T10:41:34;7.90;;;4.67;;
14847;SDS011;7516;43.570;1.448;2022-12-29T10:44:07;11.20;;;5.10;;
14847;SDS011;7516;43.570;1.448;2022-12-29T10:46:39;9.27;;;5.00;;
14847;SDS011;7516;43.570;1.448;2022-12-29T10:49:10;9.70;;;6.07;;
14847;SDS011;7516;43.570;1.448;2022-12-29T10:51:44;10.80;;;5.17;;
14847;SDS011;7516;43.570;1.448;2022-12-29T10:54:18;9.87;;;4.50;;
14847;SDS011;7516;43.570;1.448;2022-12-29T10:56:50;10.13;;;4.93;;
14847;SDS011;7516;43.570;1.448;2022-12-29T10:59:21;8.93;;;4.40;;
14847;SDS011;7516;43.570;1.448;2022-12-29T11:01:53;9.43;;;4.40;;
14847;SDS011;7516;43.570;1.448;2022-12-29T11:04:33;10.33;;;4.90;;
14847;SDS011;7516;43.570;1.448;2022-12-29T11:07:10;9.13;;;4.60;;
14847;SDS011;7516;43.570;1.448;2022-12-29T11:09:39;10.63;;;4.40;;
14847;SDS011;7516;43.570;1.448;2022-12-29T11:12:17;9.83;;;4.70;;
14847;SDS011;7516;43.570;1.448;2022-12-29T11:14:47;7.80;;;4.93;;
14847;SDS011;7516;43.570;1.448;2022-12-29T11:17:28;7.23;;;4.53;;
14847;SDS011;7516;43.570;1.448;2022-12-29T11:19:56;9.77;;;4.47;;
14847;SDS011;7516;43.570;1.448;2022-12-29T11:22:26;8.87;;;4.40;;
14847;SDS011;7516;43.570;1.448;2022-12-29T11:24:54;10.23;;;4.57;;
14847;SDS011;7516;43.570;1.448;2022-12-29T11:27:36;11.30;;;4.67;;
14847;SDS011;7516;43.570;1.448;2022-12-29T11:30:11;7.80;;;3.90;;
14847;SDS011;7516;43.570;1.448;2022-12-29T11:32:50;8.27;;;4.20;;
14847;SDS011;7516;43.570;1.448;2022-12-29T11:35:28;9.13;;;5.00;;
14847;SDS011;7516;43.570;1.448;2022-12-29T11:37:59;8.37;;;4.37;;
14847;SDS011;7516;43.570;1.448;2022-12-29T11:40:28;11.50;;;4.80;;
14847;SDS011;7516;43.570;1.448;2022-12-29T11:42:56;9.40;;;4.77;;
14847;SDS011;7516;43.570;1.448;2022-12-29T11:45:28;9.27;;;4.90;;
14847;SDS011;7516;43.570;1.448;2022-12-29T11:48:00;9.93;;;4.63;;
14847;SDS011;7516;43.570;1.448;2022-12-29T11:50:33;10.57;;;4.80;;
14847;SDS011;7516;43.570;1.448;2022-12-29T11:53:07;12.17;;;5.37;;
14847;SDS011;7516;43.570;1.448;2022-12-29T11:55:50;7.80;;;4.37;;
14847;SDS011;7516;43.570;1.448;2022-12-29T11:58:18;9.07;;;4.23;;
14847;SDS011;7516;43.570;1.448;2022-12-29T12:00:46;7.90;;;4.10;;
14847;SDS011;7516;43.570;1.448;2022-12-29T12:03:17;10.83;;;4.87;;
14847;SDS011;7516;43.570;1.448;2022-12-29T12:05:48;7.63;;;4.17;;
14847;SDS011;7516;43.570;1.448;2022-12-29T12:08:23;7.63;;;4.23;;
14847;SDS011;7516;43.570;1.448;2022-12-29T12:11:01;7.73;;;4.50;;
14847;SDS011;7516;43.570;1.448;2022-12-29T12:13:34;11.37;;;4.90;;
14847;SDS011;7516;43.570;1.448;2022-12-29T12:16:08;7.73;;;4.57;;
14847;SDS011;7516;43.570;1.448;2022-12-29T12:18:41;8.90;;;4.57;;
14847;SDS011;7516;43.570;1.448;2022-12-29T12:21:15;11.87;;;5.07;;
14847;SDS011;7516;43.570;1.448;2022-12-29T12:26:53;10.20;;;4.67;;
14847;SDS011;7516;43.570;1.448;2022-12-29T12:29:27;8.80;;;4.43;;
14847;SDS011;7516;43.570;1.448;2022-12-29T12:32:03;10.17;;;4.10;;
14847;SDS011;7516;43.570;1.448;2022-12-29T12:34:37;9.40;;;4.50;;
14847;SDS011;7516;43.570;1.448;2022-12-29T12:37:17;13.30;;;4.53;;
14847;SDS011;7516;43.570;1.448;2022-12-29T12:40:11;8.43;;;4.70;;
14847;SDS011;7516;43.570;1.448;2022-12-29T12:42:55;10.50;;;4.90;;
14847;SDS011;7516;43.570;1.448;2022-12-29T12:45:38;10.50;;;4.83;;
14847;SDS011;7516;43.570;1.448;2022-12-29T12:48:19;9.53;;;4.73;;
14847;SDS011;7516;43.570;1.448;2022-12-29T12:51:03;9.70;;;5.40;;
14847;SDS011;7516;43.570;1.448;2022-12-29T12:53:45;8.83;;;4.70;;
14847;SDS011;7516;43.570;1.448;2022-12-29T12:56:35;10.80;;;5.20;;
14847;SDS011;7516;43.570;1.448;2022-12-29T12:59:21;8.27;;;4.73;;
14847;SDS011;7516;43.570;1.448;2022-12-29T13:02:00;11.00;;;4.63;;
14847;SDS011;7516;43.570;1.448;2022-12-29T13:04:53;10.40;;;4.03;;
14847;SDS011;7516;43.570;1.448;2022-12-29T13:07:33;10.60;;;4.70;;
14847;SDS011;7516;43.570;1.448;2022-12-29T13:10:18;10.07;;;5.00;;
14847;SDS011;7516;43.570;1.448;2022-12-29T13:13:04;11.27;;;4.40;;
14847;SDS011;7516;43.570;1.448;2022-12-29T13:15:57;10.17;;;4.07;;
14847;SDS011;7516;43.570;1.448;2022-12-29T13:18:33;7.83;;;4.80;;
14847;SDS011;7516;43.570;1.448;2022-12-29T13:21:06;9.53;;;4.63;;
14847;SDS011;7516;43.570;1.448;2022-12-29T13:23:46;9.60;;;4.50;;
14847;SDS011;7516;43.570;1.448;2022-12-29T13:26:20;8.90;;;4.30;;
14847;SDS011;7516;43.570;1.448;2022-12-29T13:28:55;7.93;;;4.53;;
14847;SDS011;7516;43.570;1.448;2022-12-29T13:31:31;9.67;;;4.37;;
14847;SDS011;7516;43.570;1.448;2022-12-29T13:34:11;11.30;;;5.10;;
14847;SDS011;7516;43.570;1.448;2022-12-29T13:36:46;10.17;;;4.10;;
14847;SDS011;7516;43.570;1.448;2022-12-29T13:39:18;9.73;;;4.93;;
14847;SDS011;7516;43.570;1.448;2022-12-29T13:41:51;10.83;;;4.90;;
14847;SDS011;7516;43.570;1.448;2022-12-29T13:44:22;12.90;;;5.10;;
14847;SDS011;7516;43.570;1.448;2022-12-29T13:46:53;11.30;;;5.50;;
14847;SDS011;7516;43.570;1.448;2022-12-29T13:49:25;11.63;;;4.00;;
14847;SDS011;7516;43.570;1.448;2022-12-29T13:51:54;9.90;;;5.03;;
14847;SDS011;7516;43.570;1.448;2022-12-29T13:54:27;9.30;;;4.33;;
14847;SDS011;7516;43.570;1.448;2022-12-29T13:57:05;12.03;;;4.60;;
14847;SDS011;7516;43.570;1.448;2022-12-29T13:59:40;9.73;;;5.23;;
14847;SDS011;7516;43.570;1.448;2022-12-29T14:02:18;9.27;;;4.37;;
14847;SDS011;7516;43.570;1.448;2022-12-29T14:04:55;8.80;;;4.40;;
14847;SDS011;7516;43.570;1.448;2022-12-29T14:07:24;11.33;;;4.93;;
14847;SDS011;7516;43.570;1.448;2022-12-29T14:09:53;10.43;;;4.97;;
14847;SDS011;7516;43.570;1.448;2022-12-29T14:12:28;12.47;;;5.60;;
14847;SDS011;7516;43.570;1.448;2022-12-29T14:15:13;9.80;;;5.40;;
14847;SDS011;7516;43.570;1.448;2022-12-29T14:18:00;9.30;;;5.13;;
14847;SDS011;7516;43.570;1.448;2022-12-29T14:20:31;10.00;;;5.33;;
14847;SDS011;7516;43.570;1.448;2022-12-29T14:23:01;9.77;;;5.00;;
14847;SDS011;7516;43.570;1.448;2022-12-29T14:25:52;10.07;;;4.97;;
14847;SDS011;7516;43.570;1.448;2022-12-29T14:28:22;12.60;;;5.03;;
14847;SDS011;7516;43.570;1.448;2022-12-29T14:30:55;10.57;;;4.73;;
14847;SDS011;7516;43.570;1.448;2022-12-29T14:33:23;10.03;;;4.90;;
14847;SDS011;7516;43.570;1.448;2022-12-29T14:35:52;11.70;;;4.97;;
14847;SDS011;7516;43.570;1.448;2022-12-29T14:38:25;11.50;;;5.33;;
14847;SDS011;7516;43.570;1.448;2022-12-29T14:44:01;9.90;;;4.73;;
14847;SDS011;7516;43.570;1.448;2022-12-29T14:46:45;11.87;;;4.77;;
14847;SDS011;7516;43.570;1.448;2022-12-29T14:49:22;10.90;;;5.57;;
14847;SDS011;7516;43.570;1.448;2022-12-29T14:51:52;11.97;;;5.37;;
14847;SDS011;7516;43.570;1.448;2022-12-29T14:54:44;9.53;;;5.40;;
14847;SDS011;7516;43.570;1.448;2022-12-29T14:57:20;8.73;;;4.97;;
14847;SDS011;7516;43.570;1.448;2022-12-29T14:59:53;8.07;;;5.10;;
14847;SDS011;7516;43.570;1.448;2022-12-29T15:02:31;12.73;;;6.40;;
14847;SDS011;7516;43.570;1.448;2022-12-29T15:05:03;8.43;;;4.73;;
14847;SDS011;7516;43.570;1.448;2022-12-29T15:07:46;8.73;;;4.90;;
14847;SDS011;7516;43.570;1.448;2022-12-29T15:10:14;12.50;;;5.40;;
14847;SDS011;7516;43.570;1.448;2022-12-29T15:12:45;10.57;;;5.53;;
14847;SDS011;7516;43.570;1.448;2022-12-29T15:15:19;9.97;;;5.60;;
14847;SDS011;7516;43.570;1.448;2022-12-29T15:17:50;9.43;;;5.23;;
14847;SDS011;7516;43.570;1.448;2022-12-29T15:20:23;13.90;;;5.50;;
14847;SDS011;7516;43.570;1.448;2022-12-29T15:22:54;12.03;;;5.70;;
14847;SDS011;7516;43.570;1.448;2022-12-29T15:25:23;9.90;;;5.73;;
14847;SDS011;7516;43.570;1.448;2022-12-29T15:27:52;11.90;;;5.90;;
14847;SDS011;7516;43.570;1.448;2022-12-29T15:30:23;10.20;;;5.73;;
14847;SDS011;7516;43.570;1.448;2022-12-29T15:32:52;9.87;;;6.07;;